Time;durP1;ratioP1;P1;durP2;ratioP2;P2;SDS_P1;SDS_P2;PMS_P1;PMS_P2;Temp;Humidity;BMP_temperature;BMP_pressure;BME280_temperature;BME280_humidity;BME280_pressure;Samples;Min_cycle;Max_cycle;Signal;HPM_P1;HPM_P2
2022/10/21 00:00:57;;;;;;;63.47;31.58;;;11.30;99.90;;;;;;4871117;29;20056;-96
2022/10/21 00:03:02;;;;;;;89.15;33.85;;;10.80;99.90;;;;;;4871592;29;20052;-96
2022/10/21 00:06:30;;;;;;;62.50;31.35;;;10.80;99.90;;;;;;4881974;29;20498;-96
2022/10/21 00:09:14;;;;;;;78.57;32.80;;;10.80;99.90;;;;;;4875001;29;20055;-95
2022/10/21 00:12:05;;;;;;;;;;;;;;;;;;;;;
2022/10/21 00:14:55;;;;;;;72.07;30.38;;;10.70;99.90;;;;;;4879999;29;20148;-95
2022/10/21 00:17:59;;;;;;;59.63;31.50;;;10.60;99.90;;;;;;4893233;29;20472;-95
2022/10/21 00:20:49;;;;;;;67.70;34.08;;;10.70;99.90;;;;;;4894668;29;20052;-95
2022/10/21 00:23:36;;;;;;;66.25;33.97;;;11.00;99.90;;;;;;4864466;29;20062;-95
2022/10/21 00:26:40;;;;;;;75.20;33.65;;;11.00;99.90;;;;;;4863799;29;20040;-95
2022/10/21 00:30:05;;;;;;;80.82;32.25;;;11.00;99.90;;;;;;4879234;29;20143;-95
2022/10/21 00:32:53;;;;;;;74.47;32.20;;;11.40;99.90;;;;;;4872907;29;20093;-95
2022/10/21 00:35:38;;;;;;;;;;;;;;;;;;;;;
2022/10/21 00:39:00;;;;;;;63.85;32.47;;;10.90;99.90;;;;;;4874262;29;20097;-96
2022/10/21 00:45:31;;;;;;;;;;;;;;;;;;;;;
2022/10/21 00:48:41;;;;;;;70.28;32.60;;;10.80;99.90;;;;;;4877793;29;20506;-95
2022/10/21 00:51:24;;;;;;;61.08;31.95;;;10.80;99.90;;;;;;4839405;29;20049;-95
2022/10/21 00:54:13;;;;;;;71.25;33.80;;;11.10;99.90;;;;;;4867264;29;20131;-95
2022/10/21 00:57:05;;;;;;;69.70;32.65;;;10.70;99.90;;;;;;4867156;29;20523;-96
2022/10/21 01:00:01;;;;;;;65.88;33.45;;;10.90;99.90;;;;;;4867771;29;20049;-95
2022/10/21 01:06:30;;;;;;;77.03;33.70;;;11.00;99.90;;;;;;4838096;29;20103;-94
2022/10/21 01:09:03;;;;;;;66.32;32.92;;;11.00;99.90;;;;;;4873095;29;20103;-95
2022/10/21 01:15:45;;;;;;;;;;;;;;;;;;;;;
2022/10/21 01:19:37;;;;;;;;;;;;;;;;;;;;;
2022/10/21 01:22:45;;;;;;;71.63;32.70;;;11.00;99.90;;;;;;4872663;29;20060;-95
2022/10/21 01:25:55;;;;;;;63.28;30.10;;;10.80;99.90;;;;;;4850706;29;20059;-96
2022/10/21 01:28:43;;;;;;;74.80;33.83;;;10.80;99.90;;;;;;4867784;29;20062;-94
2022/10/21 01:35:08;;;;;;;70.80;31.17;;;10.60;99.90;;;;;;4820523;29;20056;-95
2022/10/21 01:38:05;;;;;;;63.00;29.90;;;10.70;99.90;;;;;;4837826;29;20053;-95
2022/10/21 01:40:58;;;;;;;70.82;32.92;;;10.80;99.90;;;;;;4867180;29;20052;-95
2022/10/21 01:43:50;;;;;;;75.15;32.15;;;10.70;99.90;;;;;;4859739;29;20052;-94
2022/10/21 01:47:44;;;;;;;;;;;;;;;;;;;;;
2022/10/21 01:50:20;;;;;;;;;;;;;;;;;;;;;
2022/10/21 01:53:23;;;;;;;;;;;;;;;;;;;;;
2022/10/21 01:56:24;;;;;;;64.47;30.27;;;10.50;99.90;;;;;;4883630;29;20056;-94
2022/10/21 01:59:01;;;;;;;73.97;32.00;;;10.70;99.90;;;;;;4866568;29;20091;-95
2022/10/21 02:02:23;;;;;;;67.70;30.48;;;10.80;99.90;;;;;;4866034;29;20048;-95
2022/10/21 02:05:57;;;;;;;;;;;;;;;;;;;;;
2022/10/21 02:08:55;;;;;;;70.43;30.35;;;10.60;99.90;;;;;;4850240;29;20491;-95
2022/10/21 02:11:34;;;;;;;76.50;33.53;;;10.60;99.90;;;;;;4839502;29;20073;-95
2022/10/21 02:14:13;;;;;;;89.55;35.53;;;10.60;99.90;;;;;;4862066;29;20525;-94
2022/10/21 02:16:48;;;;;;;57.50;29.27;;;10.60;99.90;;;;;;4866903;29;20143;-94
2022/10/21 02:19:37;;;;;;;;;;;;;;;;;;;;;
2022/10/21 02:22:39;;;;;;;70.32;32.45;;;10.50;99.90;;;;;;4882007;29;20147;-94
2022/10/21 02:25:27;;;;;;;69.22;32.10;;;10.50;99.90;;;;;;4881212;29;20062;-94
2022/10/21 02:28:26;;;;;;;77.70;33.85;;;10.70;99.90;;;;;;4865754;29;20044;-94
2022/10/21 02:35:16;;;;;;;71.88;31.92;;;11.00;99.90;;;;;;4880874;29;20084;-95
2022/10/21 02:38:32;;;;;;;74.82;31.80;;;10.90;99.90;;;;;;4881790;29;20387;-95
2022/10/21 02:41:40;;;;;;;72.05;32.60;;;10.90;99.90;;;;;;4867136;29;20055;-95
2022/10/21 02:44:56;;;;;;;67.65;32.28;;;11.10;99.90;;;;;;4827734;29;20084;-94
2022/10/21 02:51:26;;;;;;;85.00;33.40;;;11.30;99.90;;;;;;4854934;29;20497;-94
2022/10/21 02:54:02;;;;;;;76.03;33.05;;;11.20;99.90;;;;;;4790862;29;20788;-95
2022/10/21 02:56:55;;;;;;;65.55;32.72;;;11.30;99.90;;;;;;4820718;29;20152;-94
2022/10/21 02:59:53;;;;;;;67.90;32.65;;;11.20;99.90;;;;;;4801995;29;20481;-94
2022/10/21 03:05:31;;;;;;;61.80;31.30;;;11.10;99.90;;;;;;4805919;29;20046;-96
2022/10/21 03:08:26;;;;;;;69.50;30.67;;;11.30;99.90;;;;;;4787985;29;20185;-95
2022/10/21 03:10:53;;;;;;;77.93;35.83;;;11.40;99.90;;;;;;4826006;23;20042;-86
2022/10/21 03:13:21;;;;;;;80.57;33.70;;;11.30;99.90;;;;;;4858712;29;20498;-84
2022/10/21 03:15:48;;;;;;;102.10;36.95;;;11.40;99.90;;;;;;4858426;29;20126;-84
2022/10/21 03:18:14;;;;;;;98.65;36.00;;;11.30;99.90;;;;;;4858570;29;20085;-85
2022/10/21 03:20:43;;;;;;;89.70;35.97;;;11.40;99.90;;;;;;4844162;29;20080;-85
2022/10/21 03:23:21;;;;;;;95.82;37.78;;;11.50;99.90;;;;;;4843390;29;20048;-86
2022/10/21 03:25:50;;;;;;;84.72;33.08;;;11.50;99.90;;;;;;4859501;29;20053;-86
2022/10/21 03:28:33;;;;;;;;;;;;;;;;;;;;;
2022/10/21 03:31:25;;;;;;;99.57;37.92;;;11.50;99.90;;;;;;4860782;29;20064;-87
2022/10/21 03:33:58;;;;;;;79.15;34.65;;;11.40;99.90;;;;;;4858635;29;20052;-86
2022/10/21 03:36:26;;;;;;;115.13;41.10;;;11.40;99.90;;;;;;4859141;29;20048;-86
2022/10/21 03:42:23;;;;;;;123.78;38.90;;;10.90;99.90;;;;;;4828910;29;20049;-88
2022/10/21 03:44:50;;;;;;;101.85;35.90;;;11.40;99.90;;;;;;4844628;29;20407;-87
2022/10/21 03:47:27;;;;;;;110.78;39.75;;;11.40;99.90;;;;;;4859570;29;20056;-87
2022/10/21 03:50:26;;;;;;;82.35;34.38;;;11.40;99.90;;;;;;4860529;29;20041;-88
2022/10/21 03:53:06;;;;;;;;;;;;;;;;;;;;;
2022/10/21 03:55:53;;;;;;;82.60;33.55;;;11.20;99.90;;;;;;4859539;29;20059;-88
2022/10/21 03:58:35;;;;;;;;;;;;;;;;;;;;;
2022/10/21 04:01:21;;;;;;;91.10;32.03;;;11.70;99.90;;;;;;4857746;29;20113;-88
2022/10/21 04:03:50;;;;;;;107.80;35.92;;;11.50;99.90;;;;;;4824954;29;20498;-88
2022/10/21 04:06:16;;;;;;;113.57;33.90;;;11.40;99.90;;;;;;4826690;29;20167;-88
2022/10/21 04:08:42;;;;;;;109.40;37.22;;;11.40;99.90;;;;;;4826575;29;20136;-88
2022/10/21 04:11:08;;;;;;;270.38;52.13;;;11.30;99.90;;;;;;4855727;29;20065;-88
2022/10/21 04:14:01;;;;;;;192.98;44.63;;;11.20;99.90;;;;;;4826620;29;20406;-88
2022/10/21 04:19:23;;;;;;;80.47;31.90;;;11.40;99.90;;;;;;4803956;29;20061;-87
2022/10/21 04:22:07;;;;;;;88.75;32.08;;;11.20;99.90;;;;;;4837257;29;20406;-87
2022/10/21 04:24:32;;;;;;;186.38;44.38;;;11.40;99.90;;;;;;4841630;29;20048;-87
2022/10/21 04:27:04;;;;;;;84.20;33.03;;;11.30;99.90;;;;;;4841618;29;20170;-87
2022/10/21 04:29:36;;;;;;;123.88;39.17;;;11.40;99.90;;;;;;4843426;29;20056;-88
2022/10/21 04:32:07;;;;;;;83.55;34.08;;;11.20;99.90;;;;;;4844305;29;20135;-88
2022/10/21 04:34:44;;;;;;;187.60;45.03;;;11.20;99.90;;;;;;4858815;29;20045;-88
2022/10/21 04:37:12;;;;;;;95.20;34.30;;;11.20;99.90;;;;;;4843918;29;20041;-88
2022/10/21 04:39:59;;;;;;;96.40;35.25;;;11.30;99.90;;;;;;4843315;29;20053;-88
2022/10/21 04:42:27;;;;;;;141.50;40.67;;;11.40;99.90;;;;;;4816445;29;20069;-88
2022/10/21 04:44:59;;;;;;;89.22;34.50;;;11.40;99.90;;;;;;4843926;29;20056;-87
2022/10/21 04:47:30;;;;;;;129.15;38.88;;;11.30;99.90;;;;;;4842168;29;20557;-87
2022/10/21 04:50:08;;;;;;;143.07;39.70;;;11.50;99.90;;;;;;4843749;29;20128;-88
2022/10/21 04:52:41;;;;;;;113.82;35.97;;;11.40;99.90;;;;;;4842675;29;20049;-87
2022/10/21 04:55:10;;;;;;;93.88;35.47;;;11.60;99.90;;;;;;4843530;29;20045;-87
2022/10/21 04:58:46;;;;;;;94.55;34.85;;;11.70;99.90;;;;;;4843849;29;20519;-88
2022/10/21 05:01:10;;;;;;;112.45;37.75;;;11.60;99.90;;;;;;4826340;29;20057;-88
2022/10/21 05:03:35;;;;;;;94.57;36.25;;;11.50;99.90;;;;;;4825296;29;20133;-88
2022/10/21 05:06:01;;;;;;;115.13;37.38;;;11.70;99.90;;;;;;4824475;29;20144;-88
2022/10/21 05:08:29;;;;;;;168.75;45.60;;;11.80;99.90;;;;;;4825054;29;20052;-88
2022/10/21 05:11:01;;;;;;;128.38;41.60;;;11.50;99.90;;;;;;4824385;29;20149;-87
2022/10/21 05:13:28;;;;;;;141.40;43.28;;;11.70;99.90;;;;;;4840050;29;20091;-87
2022/10/21 05:16:00;;;;;;;218.90;48.28;;;12.00;99.90;;;;;;4824938;29;20053;-88
2022/10/21 05:18:26;;;;;;;273.20;51.50;;;11.90;99.90;;;;;;4825217;29;20455;-88
2022/10/21 05:20:55;;;;;;;251.10;49.38;;;11.80;99.90;;;;;;4824255;29;20057;-87
2022/10/21 05:23:21;;;;;;;244.98;48.50;;;11.90;99.90;;;;;;4825313;29;20042;-88
2022/10/21 05:25:55;;;;;;;253.38;52.70;;;12.00;99.90;;;;;;4840065;29;20093;-88
2022/10/21 05:28:30;;;;;;;262.55;49.55;;;11.80;99.90;;;;;;4839601;29;20502;-88
2022/10/21 05:31:18;;;;;;;501.85;68.35;;;11.90;99.90;;;;;;4824810;29;20049;-88
2022/10/21 05:33:58;;;;;;;330.33;57.42;;;11.80;99.90;;;;;;4839621;29;20053;-88
2022/10/21 05:36:23;;;;;;;292.25;54.05;;;11.80;99.90;;;;;;4826457;29;20427;-87
2022/10/21 05:38:57;;;;;;;401.08;55.38;;;11.90;99.90;;;;;;4845279;29;20044;-87
2022/10/21 05:41:27;;;;;;;359.92;54.28;;;11.80;99.90;;;;;;4847282;29;20064;-87
2022/10/21 05:44:02;;;;;;;337.77;52.47;;;11.80;99.90;;;;;;4845461;29;20053;-89
2022/10/21 05:46:31;;;;;;;361.73;55.30;;;11.90;99.90;;;;;;4845987;29;20528;-88
2022/10/21 05:48:59;;;;;;;369.30;54.13;;;11.70;99.90;;;;;;4844848;29;20105;-88
2022/10/21 05:51:30;;;;;;;312.10;50.03;;;11.60;99.90;;;;;;4847077;29;20056;-88
2022/10/21 05:53:57;;;;;;;222.13;46.95;;;11.80;99.90;;;;;;4846350;29;20127;-87
2022/10/21 05:56:23;;;;;;;232.55;46.35;;;11.70;99.90;;;;;;4846508;29;20041;-87
2022/10/21 05:58:51;;;;;;;229.70;48.45;;;11.80;99.90;;;;;;4845680;29;20048;-87
2022/10/21 06:01:22;;;;;;;178.25;46.50;;;11.80;99.90;;;;;;4846216;29;20418;-87
2022/10/21 06:03:51;;;;;;;187.10;45.83;;;11.70;99.90;;;;;;4845282;29;20139;-87
2022/10/21 06:06:19;;;;;;;200.27;49.80;;;11.70;99.90;;;;;;4846001;29;20153;-86
2022/10/21 06:08:54;;;;;;;160.15;46.08;;;11.50;99.90;;;;;;4860960;29;20053;-86
2022/10/21 06:11:30;;;;;;;126.63;41.45;;;11.70;99.90;;;;;;4845085;29;20135;-87
2022/10/21 06:13:55;;;;;;;120.80;40.42;;;11.70;99.90;;;;;;4859989;29;20135;-87
2022/10/21 06:16:22;;;;;;;128.27;39.53;;;11.60;99.90;;;;;;4845414;29;20443;-88
2022/10/21 06:18:59;;;;;;;121.18;40.65;;;11.70;99.90;;;;;;4842991;29;20108;-88
2022/10/21 06:21:30;;;;;;;141.38;42.60;;;11.60;99.90;;;;;;4845565;29;20055;-87
2022/10/21 06:24:04;;;;;;;107.18;37.05;;;11.50;99.90;;;;;;4844346;29;20119;-87
2022/10/21 06:26:32;;;;;;;116.20;38.30;;;11.60;99.90;;;;;;4841780;29;20050;-88
2022/10/21 06:29:07;;;;;;;80.50;33.72;;;11.60;99.90;;;;;;4826396;29;20049;-87
2022/10/21 06:31:48;;;;;;;106.00;36.70;;;11.60;99.90;;;;;;4826028;29;20057;-87
2022/10/21 06:34:17;;;;;;;92.65;34.33;;;11.30;99.90;;;;;;4840751;29;20512;-87
2022/10/21 06:36:52;;;;;;;84.13;33.20;;;11.60;99.90;;;;;;4841875;29;20085;-87
2022/10/21 06:39:20;;;;;;;82.43;32.35;;;11.60;99.90;;;;;;4826007;29;20053;-87
2022/10/21 06:41:51;;;;;;;92.13;33.50;;;11.40;99.90;;;;;;4826506;29;20397;-87
2022/10/21 06:44:23;;;;;;;91.47;33.17;;;11.50;99.90;;;;;;4828106;29;20053;-86
2022/10/21 06:46:49;;;;;;;93.47;32.92;;;11.40;99.90;;;;;;4826367;29;20052;-85
2022/10/21 06:49:14;;;;;;;97.75;36.08;;;11.50;99.90;;;;;;4824780;29;20061;-86
2022/10/21 06:51:40;;;;;;;77.00;32.17;;;11.50;99.90;;;;;;4840189;29;20528;-85
2022/10/21 06:54:14;;;;;;;98.40;33.10;;;11.30;99.90;;;;;;4825196;29;20045;-85
2022/10/21 06:56:47;;;;;;;80.93;31.75;;;11.40;99.90;;;;;;4826347;29;20549;-85
2022/10/21 06:59:13;;;;;;;95.03;35.70;;;11.40;99.90;;;;;;4844444;29;20051;-86
2022/10/21 07:02:00;;;;;;;91.20;33.58;;;11.30;99.90;;;;;;4836177;29;20059;-85
2022/10/21 07:04:26;;;;;;;83.25;32.63;;;11.00;99.90;;;;;;4858022;29;20056;-85
2022/10/21 07:06:52;;;;;;;85.60;32.38;;;11.40;99.90;;;;;;4843156;29;20049;-85
2022/10/21 07:09:20;;;;;;;114.55;37.03;;;11.40;99.90;;;;;;4843859;29;20104;-85
2022/10/21 07:12:04;;;;;;;95.53;33.88;;;12.00;99.90;;;;;;4841363;29;20067;-86
2022/10/21 07:14:31;;;;;;;92.50;32.40;;;11.20;99.90;;;;;;4842546;29;20041;-85
2022/10/21 07:17:10;;;;;;;144.20;39.95;;;10.80;99.90;;;;;;4857867;29;20135;-85
2022/10/21 07:19:48;;;;;;;89.80;34.47;;;11.30;99.90;;;;;;4858177;29;20056;-85
2022/10/21 07:22:16;;;;;;;76.93;31.70;;;11.20;99.90;;;;;;4842275;29;20048;-85
2022/10/21 07:24:47;;;;;;;127.63;36.97;;;11.20;99.90;;;;;;4857720;29;20088;-85
2022/10/21 07:27:16;;;;;;;83.43;31.60;;;11.00;99.90;;;;;;4842162;29;20053;-84
2022/10/21 07:29:48;;;;;;;133.07;39.25;;;11.30;99.90;;;;;;4857824;29;20060;-85
2022/10/21 07:32:32;;;;;;;135.23;39.83;;;11.30;99.90;;;;;;4840147;29;20457;-85
2022/10/21 07:34:59;;;;;;;124.72;38.83;;;11.10;99.90;;;;;;4856737;29;20361;-86
2022/10/21 07:37:27;;;;;;;127.72;38.65;;;11.30;99.90;;;;;;4847520;29;20063;-87
2022/10/21 07:39:53;;;;;;;79.63;31.98;;;11.30;99.90;;;;;;4837961;29;20388;-86
2022/10/21 07:42:30;;;;;;;118.40;37.70;;;11.50;99.90;;;;;;4852865;29;20090;-86
2022/10/21 07:44:59;;;;;;;112.68;37.55;;;11.30;99.90;;;;;;4842570;29;20045;-86
2022/10/21 07:47:28;;;;;;;92.65;35.65;;;11.50;99.90;;;;;;4843300;29;20057;-86
2022/10/21 07:50:02;;;;;;;94.20;35.03;;;11.50;99.90;;;;;;4842432;29;20052;-86
2022/10/21 07:52:44;;;;;;;83.22;32.45;;;11.30;99.90;;;;;;4843415;29;20049;-86
2022/10/21 07:55:11;;;;;;;89.97;33.38;;;11.40;99.90;;;;;;4858617;29;20052;-86
2022/10/21 07:57:37;;;;;;;123.95;37.88;;;11.60;99.90;;;;;;4842946;29;20521;-86
2022/10/21 08:00:05;;;;;;;97.05;36.72;;;11.60;99.90;;;;;;4842990;29;20065;-86
2022/10/21 08:02:46;;;;;;;100.47;35.47;;;11.80;99.90;;;;;;4857714;29;20531;-86
2022/10/21 08:05:12;;;;;;;158.02;42.22;;;11.70;99.90;;;;;;4843271;29;20040;-86
2022/10/21 08:07:38;;;;;;;93.55;34.97;;;11.20;99.90;;;;;;4858865;29;20498;-86
2022/10/21 08:10:06;;;;;;;118.10;37.83;;;11.90;99.90;;;;;;4842885;29;20075;-85
2022/10/21 08:12:38;;;;;;;85.97;33.67;;;11.70;99.90;;;;;;4843131;29;20514;-86
2022/10/21 08:15:04;;;;;;;81.15;32.60;;;11.90;99.90;;;;;;4873798;29;20057;-86
2022/10/21 08:17:33;;;;;;;87.53;34.55;;;11.90;99.90;;;;;;4841833;29;20105;-87
2022/10/21 08:20:08;;;;;;;79.07;31.50;;;12.00;99.90;;;;;;4842929;29;20154;-86
2022/10/21 08:22:41;;;;;;;85.22;33.28;;;11.90;99.90;;;;;;4858483;29;20052;-86
2022/10/21 08:25:15;;;;;;;;;;;11.90;99.90;;;;;;4843684;29;20139;-86
2022/10/21 08:27:44;;;;;;;76.55;32.20;;;11.90;99.90;;;;;;4842127;29;20404;-86
2022/10/21 08:30:14;;;;;;;81.25;31.05;;;12.00;99.90;;;;;;4840938;29;20056;-85
2022/10/21 08:32:43;;;;;;;66.85;30.05;;;12.10;99.90;;;;;;4838588;29;20399;-86
2022/10/21 08:35:08;;;;;;;74.30;32.17;;;12.20;99.90;;;;;;4839837;29;20127;-85
2022/10/21 08:37:34;;;;;;;69.85;31.63;;;12.20;99.90;;;;;;4838561;29;20097;-86
2022/10/21 08:40:00;;;;;;;70.53;31.92;;;12.50;99.90;;;;;;4839710;29;20081;-85
2022/10/21 08:42:26;;;;;;;67.30;31.60;;;12.50;99.90;;;;;;4854947;29;20057;-86
2022/10/21 08:45:00;;;;;;;87.22;34.22;;;12.60;99.90;;;;;;4838047;29;20045;-86
2022/10/21 08:47:44;;;;;;;71.90;33.38;;;12.60;99.90;;;;;;4840046;29;20473;-85
2022/10/21 08:50:18;;;;;;;79.32;32.78;;;12.90;99.90;;;;;;4839434;29;20068;-85
2022/10/21 08:52:55;;;;;;;59.13;28.83;;;13.00;99.90;;;;;;4838433;29;20084;-85
2022/10/21 08:55:34;;;;;;;64.90;29.75;;;13.00;99.90;;;;;;4824261;29;20458;-85
2022/10/21 08:58:00;;;;;;;60.95;29.20;;;13.10;99.90;;;;;;4838271;29;20061;-85
2022/10/21 09:00:36;;;;;;;63.35;30.17;;;13.10;99.90;;;;;;4838432;29;20049;-85
2022/10/21 09:03:14;;;;;;;58.53;28.38;;;13.20;99.90;;;;;;4837600;29;20065;-85
2022/10/21 09:06:02;;;;;;;56.85;27.70;;;13.40;99.90;;;;;;4837672;29;20518;-85
2022/10/21 09:08:41;;;;;;;51.80;25.80;;;13.30;99.90;;;;;;4838945;29;20049;-85
2022/10/21 09:11:18;;;;;;;52.10;25.30;;;13.40;99.90;;;;;;4839434;29;20152;-85
2022/10/21 09:14:00;;;;;;;41.42;23.17;;;13.40;99.90;;;;;;4856797;29;20113;-86
2022/10/21 09:16:48;;;;;;;42.42;23.92;;;13.60;99.90;;;;;;4842356;29;20053;-85
2022/10/21 09:19:38;;;;;;;43.13;23.38;;;13.50;99.90;;;;;;4841537;29;20061;-86
2022/10/21 09:22:36;;;;;;;52.75;25.45;;;13.60;99.90;;;;;;4842422;29;20052;-85
2022/10/21 09:25:38;;;;;;;66.55;26.20;;;13.80;99.90;;;;;;4841739;29;20049;-85
2022/10/21 09:28:12;;;;;;;48.35;24.15;;;14.00;99.90;;;;;;4886764;29;20048;-86
2022/10/21 09:30:39;;;;;;;42.22;23.50;;;14.10;99.90;;;;;;4876386;29;20057;-85
2022/10/21 09:33:21;;;;;;;42.33;22.77;;;14.20;99.90;;;;;;4874594;29;20057;-86
2022/10/21 09:36:02;;;;;;;39.70;21.65;;;14.30;99.90;;;;;;4859673;29;20064;-86
2022/10/21 09:38:39;;;;;;;34.63;19.33;;;14.60;99.90;;;;;;4860228;29;20083;-86
2022/10/21 09:41:06;;;;;;;36.20;20.77;;;14.50;99.90;;;;;;4859597;29;20040;-86
2022/10/21 09:43:31;;;;;;;32.72;18.13;;;14.50;99.90;;;;;;4860625;29;20452;-86
2022/10/21 09:45:58;;;;;;;40.13;20.08;;;14.70;99.90;;;;;;4875406;29;20494;-87
2022/10/21 09:48:28;;;;;;;28.23;17.77;;;14.60;99.90;;;;;;4858522;29;20062;-87
2022/10/21 09:51:05;;;;;;;32.40;17.40;;;14.90;99.90;;;;;;4842242;29;20056;-87
2022/10/21 09:53:33;;;;;;;38.65;19.10;;;14.70;99.90;;;;;;4842695;29;20057;-86
2022/10/21 09:56:16;;;;;;;39.97;18.08;;;14.80;99.90;;;;;;4842410;29;20117;-86
2022/10/21 09:58:42;;;;;;;27.02;16.23;;;15.00;99.90;;;;;;4842196;29;20562;-86
2022/10/21 10:01:19;;;;;;;45.60;18.00;;;14.90;99.90;;;;;;4842266;29;20168;-87
2022/10/21 10:03:49;;;;;;;32.75;15.77;;;15.20;99.90;;;;;;4840291;29;20052;-86
2022/10/21 10:06:29;;;;;;;27.45;16.08;;;15.10;99.90;;;;;;4841455;29;20126;-86
2022/10/21 10:09:06;;;;;;;35.63;15.10;;;15.20;99.90;;;;;;4840278;29;20410;-87
2022/10/21 10:11:32;;;;;;;27.42;15.38;;;15.50;99.90;;;;;;4841564;29;20062;-86
2022/10/21 10:14:32;;;;;;;32.22;14.15;;;15.70;99.90;;;;;;4840364;29;20415;-86
2022/10/21 10:17:37;;;;;;;26.17;14.38;;;15.60;99.90;;;;;;4840148;29;20160;-86
2022/10/21 10:20:03;;;;;;;26.65;12.65;;;16.00;99.90;;;;;;4841122;29;20140;-86
2022/10/21 10:22:34;;;;;;;19.65;11.65;;;16.10;99.90;;;;;;4840889;29;20145;-87
2022/10/21 10:25:13;;;;;;;22.42;11.88;;;16.10;99.90;;;;;;4840010;29;20097;-85
2022/10/21 10:27:52;;;;;;;18.83;11.15;;;16.20;99.90;;;;;;4840386;29;20510;-85
2022/10/21 10:30:19;;;;;;;19.02;12.48;;;16.20;99.90;;;;;;4840525;29;20251;-85
2022/10/21 10:32:46;;;;;;;26.10;11.35;;;16.20;99.90;;;;;;4840162;29;20077;-86
2022/10/21 10:35:23;;;;;;;23.15;11.98;;;16.20;99.90;;;;;;4841158;29;20073;-86
2022/10/21 10:37:50;;;;;;;15.20;10.95;;;16.30;99.90;;;;;;4854680;29;20056;-85
2022/10/21 10:40:23;;;;;;;24.15;12.15;;;16.30;99.90;;;;;;4856451;29;20053;-85
2022/10/21 10:42:52;;;;;;;19.15;11.32;;;16.30;99.90;;;;;;4840118;29;20161;-85
2022/10/21 10:45:21;;;;;;;17.85;10.88;;;16.20;99.90;;;;;;4840563;29;20099;-86
2022/10/21 10:47:52;;;;;;;16.35;10.93;;;16.20;99.90;;;;;;4839017;29;20049;-86
2022/10/21 10:50:36;;;;;;;19.92;11.88;;;16.20;99.90;;;;;;4855855;29;20465;-85
2022/10/21 10:53:29;;;;;;;21.67;11.25;;;16.20;99.90;;;;;;4839578;29;20539;-85
2022/10/21 10:56:01;;;;;;;19.73;11.05;;;16.10;99.90;;;;;;4840243;29;20043;-85
2022/10/21 10:58:30;;;;;;;22.60;11.85;;;16.40;99.90;;;;;;4839789;29;20497;-85
2022/10/21 11:00:59;;;;;;;18.10;11.38;;;16.30;99.90;;;;;;4840022;29;20447;-85
2022/10/21 11:03:33;;;;;;;17.23;11.80;;;16.30;99.90;;;;;;4839747;29;20053;-85
2022/10/21 11:06:14;;;;;;;19.10;10.85;;;16.40;99.90;;;;;;4854439;29;20060;-85
2022/10/21 11:08:53;;;;;;;20.65;11.65;;;16.40;99.90;;;;;;4839847;29;20049;-85
2022/10/21 11:11:32;;;;;;;22.30;11.70;;;16.30;99.90;;;;;;4855496;29;20068;-85
2022/10/21 11:13:58;;;;;;;16.73;11.23;;;16.50;99.90;;;;;;4839187;29;20125;-85
2022/10/21 11:16:33;;;;;;;14.88;10.68;;;16.40;99.90;;;;;;4855572;29;20470;-85
2022/10/21 11:19:14;;;;;;;18.67;10.73;;;16.50;99.90;;;;;;4839231;29;20136;-85
2022/10/21 11:21:44;;;;;;;16.58;10.18;;;16.50;99.90;;;;;;4839539;29;20045;-85
2022/10/21 11:24:33;;;;;;;21.75;10.77;;;16.60;99.90;;;;;;4839553;29;20436;-85
2022/10/21 11:27:22;;;;;;;19.98;10.45;;;16.60;99.90;;;;;;4838671;29;20436;-85
2022/10/21 11:30:16;;;;;;;15.23;8.95;;;16.60;99.90;;;;;;4839524;29;20049;-85
2022/10/21 11:33:01;;;;;;;13.63;8.45;;;16.70;99.90;;;;;;4838520;29;20462;-84
2022/10/21 11:35:31;;;;;;;19.13;8.43;;;16.60;99.90;;;;;;4853807;29;20064;-85
2022/10/21 11:38:02;;;;;;;14.63;8.55;;;16.60;99.90;;;;;;4838935;29;20077;-84
2022/10/21 11:40:29;;;;;;;19.17;7.80;;;16.70;99.90;;;;;;4838861;29;20113;-84
2022/10/21 11:43:01;;;;;;;16.88;8.35;;;16.70;99.90;;;;;;4839010;29;20113;-85
2022/10/21 11:45:49;;;;;;;16.30;7.80;;;16.70;99.90;;;;;;4839385;29;20056;-85
2022/10/21 11:48:37;;;;;;;14.75;8.10;;;16.70;99.90;;;;;;4853597;29;20058;-85
2022/10/21 11:51:13;;;;;;;13.60;7.57;;;16.80;99.90;;;;;;4839334;29;20384;-85
2022/10/21 11:53:59;;;;;;;13.45;7.30;;;16.70;99.90;;;;;;4839113;29;20160;-85
2022/10/21 11:56:38;;;;;;;16.98;8.05;;;16.70;99.90;;;;;;4838999;29;20057;-84
2022/10/21 11:59:19;;;;;;;18.40;7.78;;;16.70;99.90;;;;;;4839322;29;20481;-84
2022/10/21 12:02:04;;;;;;;17.67;8.13;;;16.70;99.90;;;;;;4838326;29;20096;-84
2022/10/21 12:04:44;;;;;;;20.65;7.47;;;16.70;99.90;;;;;;4871590;29;20718;-84
2022/10/21 12:07:09;;;;;;;14.23;7.03;;;16.60;99.90;;;;;;4873577;29;20154;-84
2022/10/21 12:09:47;;;;;;;17.45;8.05;;;16.70;99.90;;;;;;4872505;29;20079;-84
2022/10/21 12:12:17;;;;;;;18.20;8.27;;;16.70;99.90;;;;;;4873124;29;20113;-84
2022/10/21 12:14:48;;;;;;;20.73;8.27;;;16.70;99.90;;;;;;4857376;29;20043;-85
2022/10/21 12:17:18;;;;;;;16.25;8.70;;;16.60;99.90;;;;;;4856574;29;20651;-84
2022/10/21 12:19:53;;;;;;;16.90;8.52;;;16.70;99.90;;;;;;4857514;29;20058;-84
2022/10/21 12:22:20;;;;;;;23.00;8.80;;;16.70;99.90;;;;;;4857212;29;20053;-84
2022/10/21 12:25:08;;;;;;;20.10;8.15;;;16.70;99.90;;;;;;4856375;29;20406;-84
2022/10/21 12:27:39;;;;;;;16.73;8.60;;;16.70;99.90;;;;;;4842432;29;20526;-84
2022/10/21 12:30:07;;;;;;;16.77;8.60;;;16.60;99.90;;;;;;4838365;29;20057;-84
2022/10/21 12:32:42;;;;;;;14.85;8.55;;;16.70;99.90;;;;;;4838272;29;20092;-84
2022/10/21 12:35:13;;;;;;;25.25;9.25;;;16.70;99.90;;;;;;4854440;29;20057;-84
2022/10/21 12:37:39;;;;;;;20.48;9.00;;;16.70;99.90;;;;;;4852154;29;20053;-84
2022/10/21 12:40:12;;;;;;;16.83;8.80;;;16.80;99.90;;;;;;4839175;29;20495;-84
2022/10/21 12:42:43;;;;;;;;;;;16.80;99.90;;;;;;4864015;29;20046;-84
2022/10/21 12:45:26;;;;;;;19.98;9.02;;;16.70;99.90;;;;;;4863119;29;19985;-84
2022/10/21 12:47:52;;;;;;;19.50;8.90;;;16.70;99.90;;;;;;4888706;29;20522;-84
2022/10/21 12:50:29;;;;;;;15.73;8.35;;;16.80;99.90;;;;;;4869058;29;20497;-85
2022/10/21 12:53:25;;;;;;;17.92;8.25;;;16.80;99.90;;;;;;4866959;29;20037;-84
2022/10/21 12:55:55;;;;;;;22.20;8.48;;;16.70;99.90;;;;;;4884972;29;20473;-84
2022/10/21 12:58:31;;;;;;;30.83;9.70;;;16.70;99.90;;;;;;4865852;29;20082;-83
2022/10/21 13:00:57;;;;;;;14.95;7.90;;;16.70;99.90;;;;;;4868222;29;20057;-84
2022/10/21 13:03:47;;;;;;;20.48;8.90;;;16.70;99.90;;;;;;4869485;29;20036;-84
2022/10/21 13:06:13;;;;;;;16.30;8.05;;;16.80;99.90;;;;;;4884892;29;20148;-84
2022/10/21 13:08:53;;;;;;;20.15;9.00;;;16.80;99.90;;;;;;4850491;29;20045;-84
2022/10/21 13:11:21;;;;;;;14.85;8.60;;;16.70;99.90;;;;;;4875846;29;20433;-84
2022/10/21 13:14:08;;;;;;;17.70;8.00;;;16.70;99.90;;;;;;4844204;29;20116;-84
2022/10/21 13:16:38;;;;;;;21.58;8.48;;;16.70;99.90;;;;;;4848957;29;20490;-83
2022/10/21 13:19:34;;;;;;;15.55;7.47;;;16.60;99.90;;;;;;4840391;29;20207;-84
2022/10/21 13:22:02;;;;;;;15.48;7.85;;;16.60;99.90;;;;;;4841803;29;20068;-84
2022/10/21 13:24:32;;;;;;;14.15;7.75;;;16.60;99.90;;;;;;4841502;29;20505;-84
2022/10/21 13:27:02;;;;;;;18.17;8.52;;;16.70;99.90;;;;;;4840955;29;20054;-84
2022/10/21 13:29:28;;;;;;;17.42;7.75;;;16.70;99.90;;;;;;4842109;29;20413;-84
2022/10/21 13:32:13;;;;;;;16.48;7.70;;;16.70;99.90;;;;;;4841813;29;20144;-85
2022/10/21 13:35:25;;;;;;;17.17;7.20;;;16.60;99.90;;;;;;4841076;29;20049;-85
2022/10/21 13:38:03;;;;;;;15.57;7.13;;;16.70;99.90;;;;;;4840695;29;20041;-85
2022/10/21 13:40:36;;;;;;;14.02;7.03;;;16.80;99.90;;;;;;4841861;29;20053;-85
2022/10/21 13:43:13;;;;;;;15.32;6.65;;;16.60;99.90;;;;;;4842167;29;20064;-85
2022/10/21 13:45:59;;;;;;;12.35;6.88;;;16.70;99.90;;;;;;4856666;29;20089;-85
2022/10/21 13:48:39;;;;;;;16.67;7.60;;;16.80;99.90;;;;;;4840612;29;20057;-84
2022/10/21 13:51:15;;;;;;;16.23;6.68;;;16.80;99.90;;;;;;4842044;29;20053;-84
2022/10/21 13:53:44;;;;;;;11.73;7.03;;;16.90;99.90;;;;;;4855978;29;20057;-84
2022/10/21 13:56:28;;;;;;;13.70;6.80;;;16.90;99.90;;;;;;4841620;29;20052;-84
2022/10/21 13:58:55;;;;;;;17.27;7.10;;;17.00;99.90;;;;;;4855921;29;20057;-85
2022/10/21 14:01:27;;;;;;;17.70;7.97;;;16.90;99.90;;;;;;4841280;29;20120;-84
2022/10/21 14:03:55;;;;;;;14.00;7.15;;;17.00;99.90;;;;;;4840605;29;20427;-84
2022/10/21 14:06:31;;;;;;;16.35;7.43;;;17.00;99.90;;;;;;4856938;29;20077;-84
2022/10/21 14:09:06;;;;;;;17.73;7.40;;;17.00;99.90;;;;;;4840193;29;20042;-84
2022/10/21 14:11:40;;;;;;;12.68;6.80;;;17.00;99.90;;;;;;4857515;29;20077;-84